地図

経路データ

SID SEASON NUMBER BASIN SUBBASIN NAME ISO_TIME NATURE LAT LON WMO_WIND WMO_PRES WMO_AGENCY TRACK_TYPE DIST2LAND LANDFALL IFLAG USA_AGENCY USA_ATCF_ID USA_LAT USA_LON USA_RECORD USA_STATUS USA_WIND USA_PRES USA_SSHS USA_R34_NE USA_R34_SE USA_R34_SW USA_R34_NW USA_R50_NE USA_R50_SE USA_R50_SW USA_R50_NW USA_R64_NE USA_R64_SE USA_R64_SW USA_R64_NW USA_POCI USA_ROCI USA_RMW USA_EYE TOKYO_LAT TOKYO_LON TOKYO_GRADE TOKYO_WIND TOKYO_PRES TOKYO_R50_DIR TOKYO_R50_LONG TOKYO_R50_SHORT TOKYO_R30_DIR TOKYO_R30_LONG TOKYO_R30_SHORT TOKYO_LAND CMA_LAT CMA_LON CMA_CAT CMA_WIND CMA_PRES HKO_LAT HKO_LON HKO_CAT HKO_WIND HKO_PRES NEWDELHI_LAT NEWDELHI_LON NEWDELHI_GRADE NEWDELHI_WIND NEWDELHI_PRES NEWDELHI_CI NEWDELHI_DP NEWDELHI_POCI REUNION_LAT REUNION_LON REUNION_TYPE REUNION_WIND REUNION_PRES REUNION_TNUM REUNION_CI REUNION_RMW REUNION_R34_NE REUNION_R34_SE REUNION_R34_SW REUNION_R34_NW REUNION_R50_NE REUNION_R50_SE REUNION_R50_SW REUNION_R50_NW REUNION_R64_NE REUNION_R64_SE REUNION_R64_SW REUNION_R64_NW BOM_LAT BOM_LON BOM_TYPE BOM_WIND BOM_PRES BOM_TNUM BOM_CI BOM_RMW BOM_R34_NE BOM_R34_SE BOM_R34_SW BOM_R34_NW BOM_R50_NE BOM_R50_SE BOM_R50_SW BOM_R50_NW BOM_R64_NE BOM_R64_SE BOM_R64_SW BOM_R64_NW BOM_ROCI BOM_POCI BOM_EYE BOM_POS_METHOD BOM_PRES_METHOD NADI_LAT NADI_LON NADI_CAT NADI_WIND NADI_PRES WELLINGTON_LAT WELLINGTON_LON WELLINGTON_WIND WELLINGTON_PRES DS824_LAT DS824_LON DS824_STAGE DS824_WIND DS824_PRES TD9636_LAT TD9636_LON TD9636_STAGE TD9636_WIND TD9636_PRES TD9635_LAT TD9635_LON TD9635_WIND TD9635_PRES TD9635_ROCI NEUMANN_LAT NEUMANN_LON NEUMANN_CLASS NEUMANN_WIND NEUMANN_PRES MLC_LAT MLC_LON MLC_CLASS MLC_WIND MLC_PRES USA_GUST BOM_GUST BOM_GUST_PER REUNION_GUST REUNION_GUST_PER USA_SEAHGT USA_SEARAD_NE USA_SEARAD_SE USA_SEARAD_SW USA_SEARAD_NW STORM_SPEED STORM_DIR
1958235N15114 1958 68 WP MM NOT_NAMED 1958-08-22 18:00:00 TS 14.5000 114.000 main 511 511 __O___________ -1 14.5000 114.000 0 1005 6 86
1958235N15114 1958 68 WP MM NOT_NAMED 1958-08-22 21:00:00 TS 14.5201 114.318 main 543 543 __P___________ -1 14.5201 114.318 0 1003 6 80
1958235N15114 1958 68 WP MM NOT_NAMED 1958-08-23 00:00:00 TS 14.6000 114.600 main 569 542 __O___________ -1 14.6000 114.600 0 1002 6 62
1958235N15114 1958 68 WP MM NOT_NAMED 1958-08-23 03:00:00 TS 14.7775 114.822 main 542 516 __P___________ -1 14.7775 114.822 0 1002 6 44
1958235N15114 1958 68 WP MM NOT_NAMED 1958-08-23 06:00:00 TS 15.0000 115.000 main 516 500 __O___________ -1 15.0000 115.000 0 1002 5 37
1958235N15114 1958 68 WP MM NOT_NAMED 1958-08-23 09:00:00 TS 15.2000 115.158 main 490 473 __P___________ -1 15.2000 115.158 0 1002 7 28
1958235N15114 1958 68 WP MM NOT_NAMED 1958-08-23 12:00:00 TS 15.5800 115.320 main 473 449 __O_______O___ -1 15.4000 115.300 0 1002 16.3000 115.400 1 8 24
1958235N15114 1958 68 WP MM NOT_NAMED 1958-08-23 15:00:00 TS 15.8891 115.471 main 449 438 __P_______P___ -1 15.6000 115.458 0 1001 16.4672 115.497 1 6 25
1958235N15114 1958 68 WP MM NOT_NAMED 1958-08-23 18:00:00 TS 16.1589 115.598 main 438 428 __O_______P___ -1 15.8000 115.600 1 23 1000 16.6375 115.595 1 6 23
1958235N15114 1958 68 WP MM NOT_NAMED 1958-08-23 21:00:00 TS 16.4033 115.702 main 429 420 __P_______P___ -1 15.9925 115.708 1 23 1000 16.8141 115.696 1 5 24
1958235N15114 1958 68 WP MM NOT_NAMED 1958-08-24 00:00:00 TS 16.6000 115.800 main 421 413 __O_______O___ -1 16.2000 115.800 1 23 1000 17.0000 115.800 1 5 25
1958235N15114 1958 68 WP MM NOT_NAMED 1958-08-24 03:00:00 TS 16.8122 115.900 main 415 407 __P_______P___ -1 16.4275 115.893 1 26 1000 17.1969 115.906 1 5 23
1958235N15114 1958 68 WP MM NOT_NAMED 1958-08-24 06:00:00 TS 17.0500 116.001 main 413 406 __O_______P___ -1 16.7000 116.000 1 29 1000 17.4000 116.002 1 6 22
1958235N15114 1958 68 WP MM NOT_NAMED 1958-08-24 09:00:00 TS 17.3228 116.115 main 409 402 __P_______P___ -1 17.0425 116.157 1 29 1000 17.6031 116.072 1 6 19
1958235N15114 1958 68 WP MM NOT_NAMED 1958-08-24 12:00:00 TS 17.6000 116.200 main 409 409 __O_______O___ -1 17.4000 116.300 1 29 1000 17.8000 116.100 1 5 11
1958235N15114 1958 68 WP MM NOT_NAMED 1958-08-24 15:00:00 TS 17.8384 116.218 main 417 417 __P_______P___ -1 17.7150 116.373 1 29 999 17.9619 116.064 1 5 0
1958235N15114 1958 68 WP MM NOT_NAMED 1958-08-24 18:00:00 TS 18.0600 116.194 main 432 432 __O_______P___ -1 18.0000 116.400 1 29 998 18.1200 115.988 1 4 353
1958235N15114 1958 68 WP MM NOT_NAMED 1958-08-24 21:00:00 TS 18.2791 116.154 main 440 440 __P_______P___ -1 18.2650 116.415 1 29 998 18.2932 115.892 1 5 348
1958235N15114 1958 68 WP MM NOT_NAMED 1958-08-25 00:00:00 TS 18.5000 116.100 main 455 439 __O_______O___ -1 18.5000 116.400 1 29 998 18.5000 115.800 1 5 347
1958235N15114 1958 68 WP MM NOT_NAMED 1958-08-25 03:00:00 TS 18.7557 116.033 main 429 407 __P_______P___ -1 18.7150 116.372 1 29 998 18.7965 115.694 1 5 344
1958235N15114 1958 68 WP MM NOT_NAMED 1958-08-25 06:00:00 TS 19.0112 115.952 main 407 383 __O_______P___ -1 18.9000 116.300 1 29 998 19.1223 115.603 1 5 342
1958235N15114 1958 68 WP MM NOT_NAMED 1958-08-25 09:00:00 TS 19.2510 115.859 main 372 359 __P_______P___ -1 19.0650 116.158 1 29 998 19.4370 115.560 1 5 342
1958235N15114 1958 68 WP MM NOT_NAMED 1958-08-25 12:00:00 TS 19.4500 115.800 main 348 340 __O_______O___ -1 19.2000 116.000 1 29 998 19.7000 115.600 1 3 5
1958235N15114 1958 68 WP MM NOT_NAMED 1958-08-25 15:00:00 TS 19.5807 115.892 main 340 333 __P_______P___ -1 19.3074 115.907 1 29 998 19.8539 115.877 1 3 41
1958235N15114 1958 68 WP MM NOT_NAMED 1958-08-25 18:00:00 TS 19.6764 116.010 main 333 325 __O_______P___ -1 19.4000 115.800 1 29 998 19.9529 116.219 1 2 40
1958235N15114 1958 68 WP MM NOT_NAMED 1958-08-25 21:00:00 TS 19.7702 116.058 main 325 322 __P_______P___ -1 19.5150 115.615 1 29 996 20.0253 116.502 1 2 0
1958235N15114 1958 68 WP MM NOT_NAMED 1958-08-26 00:00:00 TS 19.8500 116.000 main 312 294 __O_______O___ -1 19.6000 115.400 1 29 995 20.1000 116.600 1 3 307
1958235N15114 1958 68 WP MM NOT_NAMED 1958-08-26 03:00:00 TS 19.9737 115.768 main 294 275 __P_______P___ -1 19.6150 115.207 1 29 995 20.3325 116.329 1 6 293
1958235N15114 1958 68 WP MM NOT_NAMED 1958-08-26 06:00:00 TS 20.0770 115.434 main 271 259 __O_______P___ -1 19.6000 115.000 1 29 995 20.5541 115.869 1 7 284
1958235N15114 1958 68 WP MM NOT_NAMED 1958-08-26 09:00:00 TS 20.1404 115.044 main 256 249 __P_______P___ -1 19.6075 114.765 1 29 995 20.6734 115.323 1 7 272
1958235N15114 1958 68 WP MM NOT_NAMED 1958-08-26 12:00:00 TS 20.1000 114.650 main 249 247 __O_______O___ -1 19.6000 114.500 1 29 995 20.6000 114.800 1 7 244
1958235N15114 1958 68 WP MM NOT_NAMED 1958-08-26 15:00:00 TS 19.8263 114.358 main 276 270 __P_______P___ -1 19.5574 114.230 1 29 995 20.0953 114.487 1 9 221
1958235N15114 1958 68 WP MM NOT_NAMED 1958-08-26 18:00:00 TS 19.4593 114.056 main 291 288 __O_______P___ -1 19.5000 113.900 1 29 995 19.4186 114.211 1 10 220
1958235N15114 1958 68 WP MM NOT_NAMED 1958-08-26 21:00:00 TS 19.1038 113.709 main 288 253 __P_______P___ -1 19.4499 113.488 1 29 994 18.7577 113.930 1 9 230
1958235N15114 1958 68 WP MM NOT_NAMED 1958-08-27 00:00:00 TS 18.8500 113.300 main 253 218 __O_______O___ -1 19.4000 113.000 1 29 994 18.3000 113.600 1 9 252
1958235N15114 1958 68 WP MM NOT_NAMED 1958-08-27 03:00:00 TS 18.8420 112.839 main 209 166 __P_______P___ -1 19.3575 112.465 1 29 994 18.3266 113.213 1 9 275
1958235N15114 1958 68 WP MM NOT_NAMED 1958-08-27 06:00:00 TS 18.9342 112.330 main 157 107 __O_______P___ -1 19.3000 111.900 1 29 994 18.5684 112.761 1 10 282
1958235N15114 1958 68 WP MM NOT_NAMED 1958-08-27 09:00:00 TS 19.0542 111.785 main 100 54 __P_______P___ -1 19.2074 111.342 1 29 994 18.9011 112.228 1 11 281
1958235N15114 1958 68 WP MM NOT_NAMED 1958-08-27 12:00:00 TS 19.1500 111.200 main 46 10 __O_______O___ -1 19.1000 110.800 1 29 994 19.2000 111.600 1 12 276
1958235N15114 1958 68 WP MM NOT_NAMED 1958-08-27 15:00:00 TS 19.1709 110.558 main 10 0 __P_______P___ -1 18.9922 110.300 1 24 994 19.3496 110.817 1 13 271
1958235N15114 1958 68 WP MM NOT_NAMED 1958-08-27 18:00:00 TS 19.1665 109.876 main 0 0 __O_______P___ -1 18.9000 109.800 0 19 994 19.4330 109.951 1 13 268
1958235N15114 1958 68 WP MM NOT_NAMED 1958-08-27 21:00:00 TS 19.1333 109.194 main 0 0 __P_______P___ -1 18.8419 109.303 0 21 995 19.4246 109.085 1 13 265
1958235N15114 1958 68 WP MM NOT_NAMED 1958-08-28 00:00:00 TS 19.0500 108.500 main 21 21 __O_______O___ -1 18.8000 108.700 1 23 997 19.3000 108.300 1 13 259
1958235N15114 1958 68 WP MM NOT_NAMED 1958-08-28 03:00:00 TS 18.8793 107.811 main 94 94 __P_______P___ -1 18.7578 107.880 1 23 997 19.0007 107.742 1 14 253
1958235N15114 1958 68 WP MM NOT_NAMED 1958-08-28 06:00:00 TS 18.6494 107.134 main 92 30 __O_______P___ -1 18.7000 107.000 1 23 997 18.5989 107.269 1 13 248
1958235N15114 1958 68 WP MM NOT_NAMED 1958-08-28 09:00:00 TS 18.3826 106.504 main 30 0 __P_______P___ -1 18.5924 106.197 1 23 997 18.1728 106.811 1 12 244
1958235N15114 1958 68 WP MM NOT_NAMED 1958-08-28 12:00:00 TS 18.1000 105.957 main 0 0 __O_______O___ -1 18.5000 105.500 1 23 997 17.8000 106.300 1 11 242
1958235N15114 1958 68 WP MM NOT_NAMED 1958-08-28 15:00:00 TS 17.8518 105.440 main 0 0 __P_______P___ -1 18.4776 104.955 1 997 17.5390 105.683 1 11 247
1958235N15114 1958 68 WP MM NOT_NAMED 1958-08-28 18:00:00 TS 17.6557 104.855 main 0 0 __O_______P___ -1 18.5000 104.500 0 998 17.3743 104.973 1 13 244
1958235N15114 1958 68 WP MM NOT_NAMED 1958-08-28 21:00:00 NR 17.2724 104.202 main 0 0 __________P___ -1 0 17.2724 104.202 1 15 252
1958235N15114 1958 68 WP MM NOT_NAMED 1958-08-29 00:00:00 NR 17.2000 103.400 main 0 __________O___ -1 17.2000 103.400 1 15 265

デジタル台風データ・検索

IBTrACS Databaseについて

本データベースは、米国NOAAが公開する1842年以降の世界の熱帯低気圧のベストトラックデータアーカイブInternational Best Track Archive for Climate Stewardship (IBTrACS)を、ウェブで閲覧しやすい形式に変換したものです。

最終更新日:2021-12-08